Time;durP1;ratioP1;P1;durP2;ratioP2;P2;SDS_P1;SDS_P2;PMS_P1;PMS_P2;Temp;Humidity;BMP_temperature;BMP_pressure;BME280_temperature;BME280_humidity;BME280_pressure;Samples;Min_cycle;Max_cycle;Signal;HPM_P1;HPM_P2
2023/11/01 00:01:57;;;;;;;8.25;6.45;;;;;;;;;;5012931;28;20029;-58
2023/11/01 00:04:22;;;;;;;6.38;5.72;;;;;;;;;;5013036;28;20030;-60
2023/11/01 00:06:47;;;;;;;6.35;5.47;;;;;;;;;;5012617;28;20774;-60
2023/11/01 00:09:13;;;;;;;6.28;5.68;;;;;;;;;;5012852;28;20022;-60
2023/11/01 00:11:38;;;;;;;5.95;5.28;;;;;;;;;;5012740;28;20057;-60
2023/11/01 00:14:04;;;;;;;6.07;5.38;;;;;;;;;;4995157;28;20091;-60
2023/11/01 00:16:29;;;;;;;6.80;6.20;;;;;;;;;;5012800;28;20033;-60
2023/11/01 00:18:55;;;;;;;6.32;5.72;;;;;;;;;;5012558;28;20042;-58
2023/11/01 00:21:20;;;;;;;8.93;6.10;;;;;;;;;;5012109;28;20026;-60
2023/11/01 00:23:46;;;;;;;7.25;6.40;;;;;;;;;;5012402;28;20038;-58
2023/11/01 00:26:11;;;;;;;9.75;6.15;;;;;;;;;;5012694;28;20072;-57
2023/11/01 00:28:37;;;;;;;9.30;6.53;;;;;;;;;;4994496;28;20060;-56
2023/11/01 00:31:02;;;;;;;6.95;6.25;;;;;;;;;;5012613;28;20065;-59
2023/11/01 00:33:28;;;;;;;8.75;7.32;;;;;;;;;;5011892;28;20057;-60
2023/11/01 00:35:53;;;;;;;8.35;7.05;;;;;;;;;;4994024;28;20085;-60
2023/11/01 00:38:20;;;;;;;9.13;7.10;;;;;;;;;;5012089;28;20180;-56
2023/11/01 00:40:46;;;;;;;8.75;6.75;;;;;;;;;;5012904;28;20030;-56
2023/11/01 00:43:11;;;;;;;9.10;7.82;;;;;;;;;;5012367;28;20057;-56
2023/11/01 00:45:37;;;;;;;8.13;7.40;;;;;;;;;;4994845;28;20029;-56
2023/11/01 00:48:02;;;;;;;9.43;7.55;;;;;;;;;;5011951;28;20470;-56
2023/11/01 00:50:27;;;;;;;8.60;7.28;;;;;;;;;;5012496;28;20080;-56
2023/11/01 00:52:53;;;;;;;7.97;6.85;;;;;;;;;;5012410;28;20032;-56
2023/11/01 00:55:19;;;;;;;8.57;7.68;;;;;;;;;;4994447;28;20145;-56
2023/11/01 00:57:46;;;;;;;9.50;7.82;;;;;;;;;;5011931;28;20040;-56
2023/11/01 01:00:13;;;;;;;7.72;7.03;;;;;;;;;;5012278;28;20455;-56
2023/11/01 01:02:38;;;;;;;8.40;7.50;;;;;;;;;;5012418;28;20065;-56
2023/11/01 01:05:04;;;;;;;7.55;6.90;;;;;;;;;;5011910;28;20068;-57
2023/11/01 01:07:30;;;;;;;10.88;7.43;;;;;;;;;;5011436;28;20121;-56
2023/11/01 01:09:56;;;;;;;8.30;7.38;;;;;;;;;;5011684;28;20113;-57
2023/11/01 01:12:22;;;;;;;8.65;7.40;;;;;;;;;;4993889;28;20029;-57
2023/11/01 01:14:48;;;;;;;8.98;7.50;;;;;;;;;;5011797;28;20029;-57
2023/11/01 01:17:13;;;;;;;9.05;7.30;;;;;;;;;;5012374;28;20072;-59
2023/11/01 01:19:40;;;;;;;8.00;7.15;;;;;;;;;;5012667;28;20073;-60
2023/11/01 01:22:06;;;;;;;9.18;7.50;;;;;;;;;;4993748;28;20439;-60
2023/11/01 01:24:31;;;;;;;9.35;8.40;;;;;;;;;;5011331;28;20040;-60
2023/11/01 01:26:56;;;;;;;10.52;7.85;;;;;;;;;;5011315;28;20065;-60
2023/11/01 01:29:22;;;;;;;8.07;7.32;;;;;;;;;;5011132;28;20033;-60
2023/11/01 01:31:47;;;;;;;9.85;8.07;;;;;;;;;;5010540;28;20032;-60
2023/11/01 01:34:13;;;;;;;7.53;6.82;;;;;;;;;;5011155;28;20041;-61
2023/11/01 01:36:38;;;;;;;7.13;6.43;;;;;;;;;;4993086;28;20058;-60
2023/11/01 01:39:03;;;;;;;7.57;6.88;;;;;;;;;;4992882;28;20033;-60
2023/11/01 01:41:29;;;;;;;9.18;6.40;;;;;;;;;;5011410;28;20038;-57
2023/11/01 01:43:54;;;;;;;7.53;6.40;;;;;;;;;;5011104;28;20029;-57
2023/11/01 01:46:22;;;;;;;6.97;6.10;;;;;;;;;;5011354;28;20034;-57
2023/11/01 01:48:47;;;;;;;6.50;5.82;;;;;;;;;;4993342;28;20458;-57
2023/11/01 01:51:13;;;;;;;7.00;5.93;;;;;;;;;;4993318;28;20080;-56
2023/11/01 01:53:40;;;;;;;6.65;5.80;;;;;;;;;;5011225;28;20026;-61
2023/11/01 01:56:09;;;;;;;6.55;5.78;;;;;;;;;;5011115;28;20117;-56
2023/11/01 01:58:36;;;;;;;6.32;5.82;;;;;;;;;;4993556;28;20068;-56
2023/11/01 02:01:01;;;;;;;5.97;5.45;;;;;;;;;;4993812;28;20030;-59
2023/11/01 02:03:29;;;;;;;6.60;5.80;;;;;;;;;;4993296;28;20599;-60
2023/11/01 02:05:55;;;;;;;7.55;6.75;;;;;;;;;;5010539;28;20026;-60
2023/11/01 02:08:21;;;;;;;6.05;5.00;;;;;;;;;;4992978;28;20030;-56
2023/11/01 02:10:47;;;;;;;6.22;5.63;;;;;;;;;;4993101;28;20149;-56
2023/11/01 02:13:13;;;;;;;6.05;5.55;;;;;;;;;;5010408;28;20033;-55
2023/11/01 02:15:39;;;;;;;7.13;6.18;;;;;;;;;;5010835;28;20050;-60
2023/11/01 02:18:05;;;;;;;6.82;5.47;;;;;;;;;;4992932;28;20833;-59
2023/11/01 02:20:34;;;;;;;6.75;6.13;;;;;;;;;;5010595;28;20132;-56
2023/11/01 02:22:59;;;;;;;6.53;5.78;;;;;;;;;;4993037;28;20041;-55
2023/11/01 02:25:25;;;;;;;5.88;5.38;;;;;;;;;;4993417;28;20358;-55
2023/11/01 02:27:50;;;;;;;6.25;5.70;;;;;;;;;;5010740;28;20103;-59
2023/11/01 02:30:16;;;;;;;5.22;4.70;;;;;;;;;;5010857;28;20113;-59
2023/11/01 02:32:47;;;;;;;7.45;5.25;;;;;;;;;;4993075;28;20033;-59
2023/11/01 02:35:13;;;;;;;6.28;4.28;;;;;;;;;;5010301;28;20413;-61
2023/11/01 02:37:39;;;;;;;6.20;5.60;;;;;;;;;;5011004;28;20038;-56
2023/11/01 02:40:05;;;;;;;6.53;5.75;;;;;;;;;;5010894;28;20045;-56
2023/11/01 02:42:31;;;;;;;5.40;4.90;;;;;;;;;;5010934;28;20025;-56
2023/11/01 02:44:56;;;;;;;5.18;4.45;;;;;;;;;;4996839;28;20040;-56
2023/11/01 02:47:22;;;;;;;5.50;4.85;;;;;;;;;;5014242;28;20496;-56
2023/11/01 02:49:47;;;;;;;5.43;4.97;;;;;;;;;;5014363;28;20029;-56
2023/11/01 02:52:13;;;;;;;5.20;4.78;;;;;;;;;;5014559;28;20472;-59
2023/11/01 02:54:38;;;;;;;5.15;4.47;;;;;;;;;;5014164;28;20037;-60
2023/11/01 02:57:03;;;;;;;4.63;4.22;;;;;;;;;;4996011;28;20104;-60
2023/11/01 02:59:29;;;;;;;6.13;4.60;;;;;;;;;;5014227;28;20482;-60
2023/11/01 03:01:55;;;;;;;5.20;4.70;;;;;;;;;;4996006;28;20025;-60
2023/11/01 03:04:20;;;;;;;4.43;4.05;;;;;;;;;;4996006;28;20038;-61
2023/11/01 03:06:46;;;;;;;4.45;4.05;;;;;;;;;;5013823;28;20057;-56
2023/11/01 03:09:12;;;;;;;4.57;4.18;;;;;;;;;;5014234;28;20401;-56
2023/11/01 03:11:38;;;;;;;4.43;4.13;;;;;;;;;;5014060;28;20054;-56
2023/11/01 03:14:04;;;;;;;4.72;4.32;;;;;;;;;;5014057;28;20038;-56
2023/11/01 03:16:29;;;;;;;5.50;4.38;;;;;;;;;;4996304;28;20541;-56
2023/11/01 03:18:55;;;;;;;5.03;4.63;;;;;;;;;;4996029;28;20034;-56
2023/11/01 03:21:20;;;;;;;5.93;5.32;;;;;;;;;;5014633;28;20042;-56
2023/11/01 03:23:45;;;;;;;4.55;4.13;;;;;;;;;;5013696;28;20073;-61
2023/11/01 03:26:11;;;;;;;5.75;4.65;;;;;;;;;;5012640;28;20038;-61
2023/11/01 03:28:36;;;;;;;5.30;4.45;;;;;;;;;;4995136;28;20037;-61
2023/11/01 03:31:02;;;;;;;4.97;4.35;;;;;;;;;;5013254;28;20032;-61
2023/11/01 03:33:28;;;;;;;6.05;5.18;;;;;;;;;;4995102;28;20034;-61
2023/11/01 03:35:53;;;;;;;7.15;5.13;;;;;;;;;;5013215;28;20107;-61
2023/11/01 03:38:19;;;;;;;5.53;5.03;;;;;;;;;;4995522;28;20033;-61
2023/11/01 03:40:44;;;;;;;5.43;4.93;;;;;;;;;;5013476;28;20108;-56
2023/11/01 03:43:10;;;;;;;6.15;5.55;;;;;;;;;;5013663;28;20030;-60
2023/11/01 03:45:36;;;;;;;5.53;5.03;;;;;;;;;;4995725;28;20462;-60
2023/11/01 03:48:01;;;;;;;5.57;4.88;;;;;;;;;;5012827;28;20096;-60
2023/11/01 03:50:27;;;;;;;5.70;5.28;;;;;;;;;;4995426;28;20018;-60
2023/11/01 03:52:52;;;;;;;6.28;5.07;;;;;;;;;;5013156;28;20038;-57
2023/11/01 03:55:18;;;;;;;6.22;5.72;;;;;;;;;;5012570;28;20030;-57
2023/11/01 03:57:43;;;;;;;6.70;6.10;;;;;;;;;;5012999;28;20046;-61
2023/11/01 04:00:09;;;;;;;9.35;7.55;;;;;;;;;;4995435;28;20117;-61
2023/11/01 04:02:34;;;;;;;8.20;7.40;;;;;;;;;;5012938;28;20124;-57
2023/11/01 04:05:00;;;;;;;8.70;6.80;;;;;;;;;;5012787;28;20044;-60
2023/11/01 04:07:25;;;;;;;6.22;5.25;;;;;;;;;;4994955;28;20087;-60
2023/11/01 04:09:51;;;;;;;6.90;4.97;;;;;;;;;;5012431;28;20021;-60
2023/11/01 04:12:16;;;;;;;5.35;4.90;;;;;;;;;;5012003;28;20041;-59
2023/11/01 04:14:41;;;;;;;5.25;4.75;;;;;;;;;;5012431;28;20174;-59
2023/11/01 04:17:07;;;;;;;5.47;5.03;;;;;;;;;;5012407;28;20062;-55
2023/11/01 04:19:33;;;;;;;5.57;4.43;;;;;;;;;;5012635;28;20045;-55
2023/11/01 04:21:59;;;;;;;3.97;3.65;;;;;;;;;;4995018;28;20042;-55
2023/11/01 04:24:24;;;;;;;5.95;4.97;;;;;;;;;;4994990;28;20373;-55
2023/11/01 04:26:52;;;;;;;4.65;4.25;;;;;;;;;;5012335;28;20481;-59
2023/11/01 04:29:17;;;;;;;4.80;4.30;;;;;;;;;;5012171;28;20040;-59
2023/11/01 04:31:43;;;;;;;5.65;4.82;;;;;;;;;;5012556;28;20041;-56
2023/11/01 04:34:10;;;;;;;7.05;4.75;;;;;;;;;;5011522;28;20105;-56
2023/11/01 04:36:37;;;;;;;5.85;5.25;;;;;;;;;;5011667;28;20478;-56
2023/11/01 04:39:03;;;;;;;4.30;3.88;;;;;;;;;;5012149;28;20036;-60
2023/11/01 04:41:28;;;;;;;4.28;3.92;;;;;;;;;;5012015;28;20041;-61
2023/11/01 04:43:54;;;;;;;5.03;4.63;;;;;;;;;;5012228;28;20521;-60
2023/11/01 04:46:19;;;;;;;4.53;4.05;;;;;;;;;;5011904;28;20037;-60
2023/11/01 04:48:44;;;;;;;4.15;3.85;;;;;;;;;;5011854;28;20026;-60
2023/11/01 04:51:10;;;;;;;4.25;3.90;;;;;;;;;;4994173;28;20037;-60
2023/11/01 04:53:35;;;;;;;4.65;4.18;;;;;;;;;;5012009;28;20109;-60
2023/11/01 04:56:05;;;;;;;3.95;3.70;;;;;;;;;;5011634;28;20030;-60
2023/11/01 04:58:32;;;;;;;3.70;3.40;;;;;;;;;;5011736;28;20091;-60
2023/11/01 05:00:58;;;;;;;3.83;3.53;;;;;;;;;;5011935;28;20033;-62
2023/11/01 05:03:24;;;;;;;3.72;3.35;;;;;;;;;;4993927;28;20121;-62
2023/11/01 05:05:49;;;;;;;3.53;3.33;;;;;;;;;;4993903;28;20184;-60
2023/11/01 05:08:15;;;;;;;4.05;3.75;;;;;;;;;;5011670;28;20045;-60
2023/11/01 05:10:40;;;;;;;3.92;3.63;;;;;;;;;;5011791;28;20037;-59
2023/11/01 05:13:05;;;;;;;3.20;2.75;;;;;;;;;;5010690;28;20074;-59
2023/11/01 05:15:32;;;;;;;4.32;3.92;;;;;;;;;;5011208;28;20037;-60
2023/11/01 05:17:57;;;;;;;4.22;3.83;;;;;;;;;;5010941;28;20501;-60
2023/11/01 05:20:22;;;;;;;4.03;3.58;;;;;;;;;;5011497;28;20021;-60
2023/11/01 05:22:48;;;;;;;4.03;3.70;;;;;;;;;;5010449;28;20377;-60
2023/11/01 05:25:14;;;;;;;4.72;3.13;;;;;;;;;;5011204;28;20752;-60
2023/11/01 05:27:43;;;;;;;5.20;3.50;;;;;;;;;;5011383;28;20033;-56
2023/11/01 05:30:14;;;;;;;3.70;3.40;;;;;;;;;;5011458;28;20044;-57
2023/11/01 05:32:41;;;;;;;4.10;3.80;;;;;;;;;;5011125;28;20528;-62
2023/11/01 05:35:08;;;;;;;3.60;3.38;;;;;;;;;;5006616;28;20038;-60
2023/11/01 05:37:33;;;;;;;4.88;3.30;;;;;;;;;;4990928;28;20116;-60
2023/11/01 05:40:00;;;;;;;4.03;3.35;;;;;;;;;;4992083;28;20117;-57
2023/11/01 05:42:25;;;;;;;3.63;3.33;;;;;;;;;;4974763;28;20042;-57
2023/11/01 05:44:51;;;;;;;3.83;3.58;;;;;;;;;;4992135;28;20030;-59
2023/11/01 05:47:16;;;;;;;3.67;3.47;;;;;;;;;;4973319;28;20073;-62
2023/11/01 05:49:43;;;;;;;4.25;3.85;;;;;;;;;;4991137;28;20037;-62
2023/11/01 05:52:09;;;;;;;3.50;3.20;;;;;;;;;;4991175;28;20791;-57
2023/11/01 05:54:35;;;;;;;3.88;3.65;;;;;;;;;;4991311;28;20386;-56
2023/11/01 05:57:01;;;;;;;3.67;3.30;;;;;;;;;;4989696;28;20041;-60
2023/11/01 05:59:27;;;;;;;3.42;3.08;;;;;;;;;;4990393;28;20095;-60
2023/11/01 06:01:55;;;;;;;3.78;3.47;;;;;;;;;;4990948;28;20745;-55
2023/11/01 06:04:21;;;;;;;3.20;3.00;;;;;;;;;;4991183;28;20159;-59
2023/11/01 06:06:46;;;;;;;3.15;2.95;;;;;;;;;;4990662;28;20079;-55
2023/11/01 06:09:16;;;;;;;4.47;4.07;;;;;;;;;;4990492;28;20085;-60
2023/11/01 06:11:43;;;;;;;;;;;;;;;;;;4991398;28;20038;-59
2023/11/01 06:14:08;;;;;;;3.22;3.03;;;;;;;;;;4990572;28;19910;-65
2023/11/01 06:16:33;;;;;;;3.83;3.50;;;;;;;;;;4973508;28;20162;-55
2023/11/01 06:18:59;;;;;;;5.03;4.50;;;;;;;;;;4993046;28;20101;-57
2023/11/01 06:21:24;;;;;;;4.88;4.38;;;;;;;;;;4994729;28;20034;-58
2023/11/01 06:23:50;;;;;;;4.03;3.58;;;;;;;;;;4993608;28;20074;-61
2023/11/01 06:26:16;;;;;;;5.55;4.18;;;;;;;;;;4993928;28;20030;-62
2023/11/01 06:28:42;;;;;;;4.25;3.83;;;;;;;;;;4992707;28;20105;-59
2023/11/01 06:31:07;;;;;;;4.63;3.20;;;;;;;;;;4995043;28;20046;-62
2023/11/01 06:33:32;;;;;;;4.07;3.83;;;;;;;;;;4996170;28;20064;-55
2023/11/01 06:35:58;;;;;;;5.72;4.40;;;;;;;;;;4977108;28;20046;-55
2023/11/01 06:38:23;;;;;;;4.03;3.65;;;;;;;;;;4994155;28;20741;-54
2023/11/01 06:40:49;;;;;;;4.75;4.13;;;;;;;;;;4993733;28;20625;-55
2023/11/01 06:43:14;;;;;;;4.45;4.13;;;;;;;;;;4994272;28;20042;-55
2023/11/01 06:45:40;;;;;;;3.25;3.05;;;;;;;;;;4993783;28;20022;-55
2023/11/01 06:48:05;;;;;;;4.50;3.75;;;;;;;;;;4992924;28;20488;-60
2023/11/01 06:50:31;;;;;;;3.97;3.58;;;;;;;;;;4992307;28;20027;-59
2023/11/01 06:52:57;;;;;;;5.75;4.47;;;;;;;;;;4975261;28;20537;-60
2023/11/01 06:55:22;;;;;;;4.35;4.00;;;;;;;;;;4993895;28;20038;-60
2023/11/01 06:57:48;;;;;;;4.55;4.03;;;;;;;;;;4993100;28;20569;-60
2023/11/01 07:00:14;;;;;;;7.45;3.95;;;;;;;;;;4992436;28;20015;-60
2023/11/01 07:02:39;;;;;;;4.63;4.05;;;;;;;;;;4992835;28;20038;-60
2023/11/01 07:05:05;;;;;;;5.00;3.78;;;;;;;;;;4992989;28;20038;-60
2023/11/01 07:07:31;;;;;;;3.97;3.60;;;;;;;;;;4993574;28;20041;-59
2023/11/01 07:09:56;;;;;;;6.10;3.78;;;;;;;;;;4993026;28;20045;-59
2023/11/01 07:12:22;;;;;;;3.05;2.85;;;;;;;;;;4991904;28;20022;-59
2023/11/01 07:14:48;;;;;;;6.07;3.53;;;;;;;;;;4992359;28;20030;-60
2023/11/01 07:17:13;;;;;;;3.28;2.78;;;;;;;;;;4993329;28;20481;-59
2023/11/01 07:19:38;;;;;;;5.32;3.45;;;;;;;;;;4993026;28;20510;-59
2023/11/01 07:22:07;;;;;;;3.75;3.03;;;;;;;;;;4992561;28;20042;-59
2023/11/01 07:24:33;;;;;;;3.60;2.80;;;;;;;;;;4991491;28;20375;-59
2023/11/01 07:26:59;;;;;;;6.32;3.65;;;;;;;;;;4991309;28;20027;-55
2023/11/01 07:29:24;;;;;;;6.97;3.30;;;;;;;;;;4991033;28;20030;-55
2023/11/01 07:31:50;;;;;;;2.95;2.72;;;;;;;;;;4975041;28;20049;-55
2023/11/01 07:34:15;;;;;;;4.03;2.65;;;;;;;;;;4974705;28;20022;-55
2023/11/01 07:36:40;;;;;;;3.50;3.20;;;;;;;;;;4974354;28;20158;-55
2023/11/01 07:39:06;;;;;;;4.38;2.92;;;;;;;;;;4975420;28;20038;-56
2023/11/01 07:41:32;;;;;;;2.90;2.70;;;;;;;;;;4993151;28;20022;-55
2023/11/01 07:43:57;;;;;;;7.15;3.10;;;;;;;;;;4993171;28;20049;-54
2023/11/01 07:46:22;;;;;;;5.13;3.35;;;;;;;;;;4991670;28;20045;-55
2023/11/01 07:48:48;;;;;;;4.20;3.22;;;;;;;;;;4991189;28;20049;-55
2023/11/01 07:51:13;;;;;;;4.55;3.45;;;;;;;;;;4991859;28;20019;-54
2023/11/01 07:53:39;;;;;;;4.35;3.20;;;;;;;;;;4991572;28;20196;-55
2023/11/01 07:56:05;;;;;;;3.15;2.80;;;;;;;;;;4991336;28;20349;-55
2023/11/01 07:58:31;;;;;;;3.08;2.83;;;;;;;;;;4991604;28;20031;-55
2023/11/01 08:00:58;;;;;;;5.10;2.97;;;;;;;;;;4992135;28;20084;-54
2023/11/01 08:03:24;;;;;;;2.92;2.63;;;;;;;;;;4991733;28;20452;-55
2023/11/01 08:05:49;;;;;;;3.70;2.47;;;;;;;;;;4991517;28;20113;-55
2023/11/01 08:08:15;;;;;;;4.00;2.17;;;;;;;;;;4990812;28;20034;-62
2023/11/01 08:10:41;;;;;;;2.50;2.30;;;;;;;;;;4991036;28;20037;-59
2023/11/01 08:13:06;;;;;;;1.63;1.52;;;;;;;;;;4991105;28;20028;-56
2023/11/01 08:15:33;;;;;;;3.05;2.22;;;;;;;;;;4991051;28;20474;-60
2023/11/01 08:18:04;;;;;;;2.70;2.50;;;;;;;;;;4990639;28;20049;-57
2023/11/01 08:20:32;;;;;;;4.07;2.58;;;;;;;;;;4990850;28;20397;-56
2023/11/01 08:22:57;;;;;;;4.80;3.05;;;;;;;;;;4990847;28;20434;-57
2023/11/01 08:25:23;;;;;;;3.80;2.65;;;;;;;;;;4973351;28;20030;-57
2023/11/01 08:27:48;;;;;;;3.38;2.53;;;;;;;;;;4990274;28;20494;-56
2023/11/01 08:30:14;;;;;;;3.90;3.00;;;;;;;;;;4990778;28;20034;-57
2023/11/01 08:32:40;;;;;;;3.55;2.80;;;;;;;;;;4990609;28;20034;-62
2023/11/01 08:35:08;;;;;;;3.10;2.80;;;;;;;;;;4990597;28;20531;-56
2023/11/01 08:37:33;;;;;;;2.90;2.60;;;;;;;;;;4990252;28;20093;-57
2023/11/01 08:39:58;;;;;;;4.80;2.50;;;;;;;;;;4990512;28;20034;-59
2023/11/01 08:42:24;;;;;;;2.28;2.08;;;;;;;;;;4990260;28;20496;-57
2023/11/01 08:44:49;;;;;;;2.70;2.50;;;;;;;;;;4990453;28;20054;-57
2023/11/01 08:47:53;;;;;;;2.72;2.30;;;;;;;;;;4989930;28;20390;-57
2023/11/01 08:50:19;;;;;;;3.42;2.35;;;;;;;;;;4906557;29;20463;-57
2023/11/01 08:52:44;;;;;;;2.78;2.42;;;;;;;;;;4910800;29;20036;-57
2023/11/01 08:55:14;;;;;;;4.28;2.33;;;;;;;;;;4947079;28;20046;-57
2023/11/01 08:57:46;;;;;;;2.83;2.55;;;;;;;;;;4989897;28;20033;-57
2023/11/01 09:00:13;;;;;;;4.07;2.30;;;;;;;;;;4990084;28;20145;-57
2023/11/01 09:02:39;;;;;;;3.85;2.17;;;;;;;;;;4989978;28;20045;-57
2023/11/01 09:05:04;;;;;;;2.35;2.10;;;;;;;;;;4989952;28;20026;-62
2023/11/01 09:07:30;;;;;;;2.25;1.80;;;;;;;;;;4989735;28;20042;-57
2023/11/01 09:09:55;;;;;;;3.95;2.35;;;;;;;;;;4990046;28;20374;-57
2023/11/01 09:12:21;;;;;;;1.85;1.75;;;;;;;;;;4990206;28;20083;-57
2023/11/01 09:14:46;;;;;;;2.45;2.08;;;;;;;;;;4990017;28;20063;-57
2023/11/01 09:17:12;;;;;;;2.15;1.90;;;;;;;;;;4989614;28;20030;-57
2023/11/01 09:19:38;;;;;;;2.78;1.70;;;;;;;;;;4989823;28;20026;-57
2023/11/01 09:22:04;;;;;;;2.75;1.77;;;;;;;;;;4990080;28;20034;-56
2023/11/01 09:24:29;;;;;;;2.58;1.65;;;;;;;;;;4973014;28;20051;-57
2023/11/01 09:26:55;;;;;;;3.92;1.95;;;;;;;;;;4990485;28;20175;-56
2023/11/01 09:29:20;;;;;;;1.77;1.23;;;;;;;;;;4990178;28;20041;-57
2023/11/01 09:31:45;;;;;;;2.63;1.60;;;;;;;;;;4989843;28;20033;-57
2023/11/01 09:34:19;;;;;;;2.83;2.03;;;;;;;;;;4989912;28;20026;-57
2023/11/01 09:36:44;;;;;;;3.13;1.88;;;;;;;;;;4989447;28;20132;-57
2023/11/01 09:39:11;;;;;;;2.33;1.63;;;;;;;;;;4990014;28;20061;-56
2023/11/01 09:41:50;;;;;;;1.67;1.50;;;;;;;;;;4989735;28;20041;-57
2023/11/01 09:44:17;;;;;;;6.05;1.55;;;;;;;;;;4989723;28;20038;-57
2023/11/01 09:46:49;;;;;;;1.90;1.58;;;;;;;;;;4989622;28;20034;-56
2023/11/01 09:49:15;;;;;;;1.83;1.20;;;;;;;;;;4989615;28;20040;-57
2023/11/01 09:51:42;;;;;;;2.75;1.67;;;;;;;;;;4989837;28;20078;-57
2023/11/01 09:54:09;;;;;;;3.08;1.40;;;;;;;;;;4988824;28;20041;-57
2023/11/01 09:56:37;;;;;;;1.73;1.42;;;;;;;;;;4989406;28;20038;-57
2023/11/01 09:59:03;;;;;;;1.77;1.63;;;;;;;;;;4989459;28;20097;-57
2023/11/01 10:01:28;;;;;;;3.25;1.25;;;;;;;;;;4989658;28;20027;-56
2023/11/01 10:03:55;;;;;;;2.67;1.63;;;;;;;;;;4989626;28;20457;-56
2023/11/01 10:06:21;;;;;;;2.58;1.48;;;;;;;;;;4989468;28;20040;-57
2023/11/01 10:08:47;;;;;;;5.00;2.08;;;;;;;;;;4989061;28;20034;-57
2023/11/01 10:11:12;;;;;;;2.78;1.80;;;;;;;;;;4989467;28;20144;-56
2023/11/01 10:13:37;;;;;;;3.13;1.70;;;;;;;;;;4989271;28;20030;-56
2023/11/01 10:16:03;;;;;;;3.55;2.10;;;;;;;;;;4990243;28;20084;-56
2023/11/01 10:18:31;;;;;;;3.42;1.80;;;;;;;;;;4991328;28;20057;-56
2023/11/01 10:20:57;;;;;;;1.80;1.60;;;;;;;;;;4990481;28;20069;-56
2023/11/01 10:23:25;;;;;;;1.88;1.38;;;;;;;;;;4990023;28;20038;-56
2023/11/01 10:25:51;;;;;;;2.70;1.85;;;;;;;;;;4990113;28;20069;-56
2023/11/01 10:28:16;;;;;;;3.00;1.50;;;;;;;;;;4989275;28;20065;-56
2023/11/01 10:30:44;;;;;;;2.10;1.45;;;;;;;;;;4989264;28;20066;-56
2023/11/01 10:33:09;;;;;;;1.27;1.17;;;;;;;;;;4990277;28;20026;-56
2023/11/01 10:35:35;;;;;;;1.88;1.23;;;;;;;;;;4988769;28;20061;-56
2023/11/01 10:38:02;;;;;;;2.95;1.42;;;;;;;;;;4989674;28;20037;-56
2023/11/01 10:40:29;;;;;;;3.38;1.48;;;;;;;;;;4990036;28;20045;-57
2023/11/01 10:42:56;;;;;;;1.65;1.55;;;;;;;;;;4990070;28;20041;-57
2023/11/01 10:45:22;;;;;;;1.05;0.98;;;;;;;;;;4990019;28;20061;-56
2023/11/01 10:47:47;;;;;;;2.13;1.40;;;;;;;;;;4972691;28;20442;-56
2023/11/01 10:50:13;;;;;;;2.20;1.35;;;;;;;;;;4990631;28;20102;-57
2023/11/01 10:52:39;;;;;;;1.52;1.33;;;;;;;;;;4990459;28;20034;-57
2023/11/01 10:55:04;;;;;;;1.35;1.25;;;;;;;;;;4990419;28;20034;-57
2023/11/01 10:57:30;;;;;;;3.63;1.52;;;;;;;;;;4989201;28;20113;-57
2023/11/01 11:00:05;;;;;;;1.48;1.38;;;;;;;;;;4989027;28;20034;-57
2023/11/01 11:02:51;;;;;;;1.35;1.15;;;;;;;;;;4989283;28;20154;-58
2023/11/01 11:05:19;;;;;;;2.67;1.40;;;;;;;;;;4993534;28;20463;-56
2023/11/01 11:07:44;;;;;;;2.67;1.23;;;;;;;;;;4993309;28;20073;-56
2023/11/01 11:10:32;;;;;;;1.95;1.23;;;;;;;;;;4992780;28;20128;-56
2023/11/01 11:15:47;;;;;;;1.65;1.40;;;;;;;;;;4992476;28;20030;-56
2023/11/01 11:18:13;;;;;;;1.63;1.52;;;;;;;;;;4991100;28;20030;-56
2023/11/01 11:20:38;;;;;;;1.50;1.30;;;;;;;;;;4991668;28;20030;-56
2023/11/01 11:23:06;;;;;;;2.50;1.42;;;;;;;;;;4991407;28;20037;-56
2023/11/01 11:25:45;;;;;;;1.20;1.10;;;;;;;;;;4973910;28;20092;-56
2023/11/01 11:28:11;;;;;;;1.35;1.20;;;;;;;;;;4991208;28;20394;-56
2023/11/01 11:30:56;;;;;;;1.80;1.00;;;;;;;;;;4992182;28;20042;-56
2023/11/01 11:33:21;;;;;;;1.63;1.23;;;;;;;;;;4992803;28;20033;-56
2023/11/01 11:36:06;;;;;;;1.20;1.02;;;;;;;;;;4993096;28;20054;-56
2023/11/01 11:38:33;;;;;;;1.60;1.17;;;;;;;;;;4993057;28;20040;-56
2023/11/01 11:41:14;;;;;;;1.23;1.05;;;;;;;;;;4993353;28;20405;-60
2023/11/01 11:43:59;;;;;;;1.27;0.90;;;;;;;;;;4992955;28;20042;-60
2023/11/01 11:46:27;;;;;;;1.63;1.00;;;;;;;;;;4992940;28;20474;-56
2023/11/01 11:48:53;;;;;;;1.85;0.90;;;;;;;;;;4993182;28;20490;-60
2023/11/01 11:51:20;;;;;;;1.02;0.93;;;;;;;;;;4977604;28;20127;-60
2023/11/01 11:53:45;;;;;;;1.23;1.13;;;;;;;;;;4995092;28;20030;-60
2023/11/01 11:56:11;;;;;;;2.97;1.95;;;;;;;;;;4995209;28;20022;-60
2023/11/01 11:58:42;;;;;;;2.50;1.83;;;;;;;;;;4992434;28;20030;-60
2023/11/01 12:01:07;;;;;;;;;;;;;;;;;;4993295;28;20041;-60
2023/11/01 12:03:32;;;;;;;1.08;0.88;;;;;;;;;;4992219;28;20285;-60
2023/11/01 12:06:01;;;;;;;1.42;1.33;;;;;;;;;;4992091;28;20130;-60
2023/11/01 12:08:36;;;;;;;1.77;1.00;;;;;;;;;;4991910;28;20044;-60
2023/11/01 12:11:01;;;;;;;1.92;1.52;;;;;;;;;;4993146;28;20041;-60
2023/11/01 12:13:47;;;;;;;2.92;1.05;;;;;;;;;;4975210;28;20026;-60
2023/11/01 12:16:29;;;;;;;2.50;1.42;;;;;;;;;;4991746;28;20101;-60
2023/11/01 12:19:10;;;;;;;2.20;1.10;;;;;;;;;;4991755;28;20052;-60
2023/11/01 12:21:39;;;;;;;1.90;1.20;;;;;;;;;;4991964;28;20562;-60
2023/11/01 12:24:04;;;;;;;2.45;1.08;;;;;;;;;;4991862;28;20053;-60
2023/11/01 12:26:30;;;;;;;1.77;1.20;;;;;;;;;;4991818;28;20451;-60
2023/11/01 12:28:56;;;;;;;1.73;1.15;;;;;;;;;;4991470;28;20053;-60
2023/11/01 12:31:21;;;;;;;2.35;1.10;;;;;;;;;;4992024;28;20470;-60
2023/11/01 12:33:47;;;;;;;2.08;1.27;;;;;;;;;;4974110;28;20042;-60
2023/11/01 12:36:16;;;;;;;1.40;1.30;;;;;;;;;;4989341;28;20510;-60
2023/11/01 12:38:43;;;;;;;1.58;1.42;;;;;;;;;;4991561;28;20038;-60
2023/11/01 12:41:10;;;;;;;1.60;1.23;;;;;;;;;;4992295;28;20026;-60
2023/11/01 12:43:48;;;;;;;2.30;1.83;;;;;;;;;;4991922;28;20045;-60
2023/11/01 12:46:13;;;;;;;1.90;1.70;;;;;;;;;;4974216;28;20038;-60
2023/11/01 12:48:38;;;;;;;1.90;1.40;;;;;;;;;;4991108;28;20060;-60
2023/11/01 12:51:06;;;;;;;1.85;1.30;;;;;;;;;;4991547;28;20499;-56
2023/11/01 12:53:31;;;;;;;1.52;1.25;;;;;;;;;;4991434;28;20039;-56
2023/11/01 12:55:56;;;;;;;1.80;1.25;;;;;;;;;;5006379;28;20026;-56
2023/11/01 12:58:22;;;;;;;1.90;1.13;;;;;;;;;;4991439;28;20037;-56
2023/11/01 13:00:47;;;;;;;1.13;0.90;;;;;;;;;;4991201;28;20479;-56
2023/11/01 13:03:12;;;;;;;1.33;1.23;;;;;;;;;;4991291;28;20041;-56
2023/11/01 13:05:39;;;;;;;1.25;1.13;;;;;;;;;;4991678;28;20097;-56
2023/11/01 13:08:04;;;;;;;1.20;1.10;;;;;;;;;;4991027;28;20034;-56
2023/11/01 13:10:30;;;;;;;1.58;1.35;;;;;;;;;;4991244;28;20041;-56
2023/11/01 13:12:55;;;;;;;1.55;1.20;;;;;;;;;;4991113;28;20018;-56
2023/11/01 13:15:21;;;;;;;1.35;1.10;;;;;;;;;;4991110;28;20038;-56
2023/11/01 13:17:47;;;;;;;1.42;0.77;;;;;;;;;;4990761;28;20038;-56
2023/11/01 13:20:12;;;;;;;1.45;1.38;;;;;;;;;;4990890;28;20058;-56
2023/11/01 13:22:38;;;;;;;1.15;0.90;;;;;;;;;;4990996;28;20049;-56
2023/11/01 13:25:04;;;;;;;2.05;1.20;;;;;;;;;;4991213;28;20038;-56
2023/11/01 13:27:29;;;;;;;1.60;1.50;;;;;;;;;;4989914;28;20038;-56
2023/11/01 13:29:54;;;;;;;2.40;1.60;;;;;;;;;;4990757;28;20041;-56
2023/11/01 13:32:20;;;;;;;2.63;1.85;;;;;;;;;;4973475;28;20029;-56
2023/11/01 13:34:45;;;;;;;5.90;3.28;;;;;;;;;;4993118;28;20120;-56
2023/11/01 13:37:13;;;;;;;3.35;2.63;;;;;;;;;;4992526;28;20026;-56
2023/11/01 13:39:39;;;;;;;4.03;2.30;;;;;;;;;;5010247;28;20033;-56
2023/11/01 13:42:04;;;;;;;5.88;2.20;;;;;;;;;;5010176;28;20551;-56
2023/11/01 13:44:29;;;;;;;3.92;2.20;;;;;;;;;;4992547;28;20366;-56
2023/11/01 13:46:55;;;;;;;5.25;3.30;;;;;;;;;;5009960;28;20037;-56
2023/11/01 13:49:21;;;;;;;6.18;3.70;;;;;;;;;;5010002;28;20034;-57
2023/11/01 13:51:47;;;;;;;6.72;3.80;;;;;;;;;;5010353;28;20026;-56
2023/11/01 13:54:13;;;;;;;6.65;3.47;;;;;;;;;;5010261;28;20053;-56
2023/11/01 13:56:38;;;;;;;3.00;2.17;;;;;;;;;;4992699;28;20063;-56
2023/11/01 13:59:03;;;;;;;2.15;1.40;;;;;;;;;;5010810;28;20376;-56
2023/11/01 14:01:29;;;;;;;2.17;1.15;;;;;;;;;;5010216;28;20053;-56
2023/11/01 14:03:57;;;;;;;1.50;1.30;;;;;;;;;;5010242;28;20388;-56
2023/11/01 14:06:23;;;;;;;1.48;0.98;;;;;;;;;;5010210;28;20068;-56
2023/11/01 14:08:49;;;;;;;1.23;1.13;;;;;;;;;;5009822;28;20037;-56
2023/11/01 14:11:15;;;;;;;2.95;0.98;;;;;;;;;;5009963;28;20050;-56
2023/11/01 14:13:41;;;;;;;1.75;1.10;;;;;;;;;;4991969;28;20397;-56
2023/11/01 14:16:07;;;;;;;0.98;0.90;;;;;;;;;;5010074;28;20029;-56
2023/11/01 14:18:32;;;;;;;2.05;1.17;;;;;;;;;;5009781;28;20120;-56
2023/11/01 14:20:59;;;;;;;1.50;1.15;;;;;;;;;;5010009;28;20042;-57
2023/11/01 14:23:25;;;;;;;1.58;1.30;;;;;;;;;;5009816;28;20496;-56
2023/11/01 14:25:50;;;;;;;2.40;1.25;;;;;;;;;;4991948;28;20076;-56
2023/11/01 14:28:17;;;;;;;2.47;2.28;;;;;;;;;;5009556;28;20034;-56
2023/11/01 14:30:43;;;;;;;2.42;1.30;;;;;;;;;;5009567;28;20088;-56
2023/11/01 14:33:08;;;;;;;2.15;1.45;;;;;;;;;;5009798;28;20026;-56
2023/11/01 14:35:34;;;;;;;1.80;1.35;;;;;;;;;;5009566;28;20501;-56
2023/11/01 14:37:59;;;;;;;3.00;1.40;;;;;;;;;;5024450;28;20080;-56
2023/11/01 14:40:24;;;;;;;1.90;1.60;;;;;;;;;;5012690;28;20029;-56
2023/11/01 14:42:50;;;;;;;1.63;1.20;;;;;;;;;;4995598;28;20042;-56